Time;durP1;ratioP1;P1;durP2;ratioP2;P2;SDS_P1;SDS_P2;PMS_P1;PMS_P2;Temp;Humidity;BMP_temperature;BMP_pressure;BME280_temperature;BME280_humidity;BME280_pressure;Samples;Min_cycle;Max_cycle;Signal;HPM_P1;HPM_P2
2021/09/04 00:00:23;;;;;;;16.95;9.60;;;;;;;13.47;78.27;100847.89;1622422;86;27504;-79
2021/09/04 00:02:52;;;;;;;17.45;10.23;;;;;;;13.44;78.54;100850.16;1621034;86;26074;-79
2021/09/04 00:05:19;;;;;;;19.95;10.88;;;;;;;13.41;78.80;100854.62;1623022;86;25878;-79
2021/09/04 00:07:46;;;;;;;20.82;11.73;;;;;;;13.42;78.46;100862.48;1598931;86;26067;-79
2021/09/04 00:10:14;;;;;;;19.45;10.45;;;;;;;13.39;78.58;100860.17;1620443;86;26048;-79
2021/09/04 00:12:41;;;;;;;22.13;11.22;;;;;;;13.39;78.60;100863.38;1579375;88;27211;-79
2021/09/04 00:15:10;;;;;;;18.80;10.63;;;;;;;13.35;78.56;100868.84;1585419;90;26048;-79
2021/09/04 00:17:39;;;;;;;15.13;9.68;;;;;;;13.29;78.50;100866.44;1565254;89;25882;-78
2021/09/04 00:20:08;;;;;;;15.40;9.73;;;;;;;13.26;78.43;100870.05;1573333;88;26565;-78
2021/09/04 00:22:35;;;;;;;16.90;9.23;;;;;;;13.20;78.35;100866.78;1590683;88;25957;-79
2021/09/04 00:25:03;;;;;;;14.65;9.15;;;;;;;13.14;78.34;100870.59;1593679;89;27494;-79
2021/09/04 00:27:30;;;;;;;18.87;10.80;;;;;;;13.08;78.48;100872.73;1587992;89;26732;-79
2021/09/04 00:29:57;;;;;;;19.20;10.45;;;;;;;13.07;79.03;100871.55;1619313;86;26089;-79
2021/09/04 00:32:24;;;;;;;14.47;9.15;;;;;;;13.06;78.95;100868.56;1551994;88;25971;-79
2021/09/04 00:34:51;;;;;;;14.60;8.98;;;;;;;13.03;78.99;100876.47;1637851;86;25991;-79
2021/09/04 00:37:19;;;;;;;12.40;8.40;;;;;;;13.00;78.42;100876.05;1598310;87;27504;-80
2021/09/04 00:39:46;;;;;;;12.47;7.83;;;;;;;12.94;78.54;100872.26;1621796;86;25843;-79
2021/09/04 00:42:14;;;;;;;14.58;8.03;;;;;;;12.88;78.74;100870.36;1600280;86;25811;-79
2021/09/04 00:44:41;;;;;;;14.25;8.53;;;;;;;12.86;78.83;100874.27;1619755;87;25783;-79
2021/09/04 00:47:08;;;;;;;17.07;9.25;;;;;;;12.81;78.90;100875.38;1605807;86;25883;-79
2021/09/04 00:49:36;;;;;;;15.30;8.50;;;;;;;12.76;79.36;100867.89;1603681;86;27580;-79
2021/09/04 00:52:05;;;;;;;18.30;8.65;;;;;;;12.70;79.77;100872.67;1606967;86;25404;-79
2021/09/04 00:54:34;;;;;;;13.88;8.93;;;;;;;12.67;79.87;100869.05;1630735;86;26244;-78
2021/09/04 00:57:02;;;;;;;12.75;8.00;;;;;;;12.66;80.07;100871.94;1609318;86;25906;-79
2021/09/04 00:59:30;;;;;;;14.18;8.33;;;;;;;12.62;79.88;100876.01;1628747;87;26606;-78
2021/09/04 01:01:58;;;;;;;18.32;8.58;;;;;;;12.58;79.88;100880.11;1610497;86;27454;-78
2021/09/04 01:04:25;;;;;;;11.88;7.75;;;;;;;12.54;80.24;100872.95;1608673;86;25830;-79
2021/09/04 01:06:53;;;;;;;14.75;9.18;;;;;;;12.46;80.43;100873.09;1605667;85;26346;-80
2021/09/04 01:09:23;;;;;;;17.62;8.63;;;;;;;12.40;80.59;100876.02;1628534;86;26598;-79
2021/09/04 01:11:50;;;;;;;16.10;9.10;;;;;;;12.40;80.85;100879.24;1609837;86;25822;-78
2021/09/04 01:14:17;;;;;;;11.93;8.70;;;;;;;12.39;80.82;100878.91;1648371;86;27482;-79
2021/09/04 01:16:44;;;;;;;15.05;7.78;;;;;;;12.36;80.35;100876.09;1606756;86;26573;-79
2021/09/04 01:19:12;;;;;;;12.60;8.75;;;;;;;12.34;80.02;100879.98;1625238;86;25855;-79
2021/09/04 01:21:39;;;;;;;16.07;9.60;;;;;;;12.32;79.83;100884.20;1616887;87;25900;-79
2021/09/04 01:24:07;;;;;;;16.80;10.95;;;;;;;12.29;79.65;100887.30;1647479;86;25890;-79
2021/09/04 01:26:35;;;;;;;17.48;10.53;;;;;;;12.27;79.70;100892.00;1607889;86;27594;-79
2021/09/04 01:29:02;;;;;;;17.52;10.53;;;;;;;12.25;79.51;100894.58;1622517;86;25897;-79
2021/09/04 01:31:29;;;;;;;23.55;12.33;;;;;;;12.24;79.48;100888.88;1619265;87;26361;-79
2021/09/04 01:33:57;;;;;;;17.67;10.90;;;;;;;12.21;79.40;100888.73;1649893;86;25927;-79
2021/09/04 01:36:38;;;;;;;22.37;13.40;;;;;;;12.20;79.38;100888.94;1579280;88;26477;-79
2021/09/04 01:39:09;;;;;;;16.25;10.08;;;;;;;12.16;79.44;100887.66;1565539;90;27491;-78
2021/09/04 01:41:38;;;;;;;20.90;10.78;;;;;;;12.14;79.36;100896.41;1582281;88;25945;-78
2021/09/04 01:44:05;;;;;;;25.90;16.07;;;;;;;12.08;79.24;100895.30;1621927;88;25845;-79
2021/09/04 01:46:34;;;;;;;27.40;15.72;;;;;;;12.07;79.35;100890.97;1545983;90;26292;-78
2021/09/04 01:49:02;;;;;;;39.53;20.10;;;;;;;12.06;79.75;100893.84;1566023;90;25868;-79
2021/09/04 01:51:29;;;;;;;26.70;15.05;;;;;;;12.05;79.56;100890.33;1546197;90;27552;-79
2021/09/04 01:53:56;;;;;;;25.08;14.58;;;;;;;12.02;79.27;100890.69;1585268;90;26555;-79
2021/09/04 01:56:23;;;;;;;20.48;12.68;;;;;;;11.98;79.18;100883.20;1545567;90;25713;-79
2021/09/04 01:58:51;;;;;;;18.75;11.05;;;;;;;11.94;79.06;100888.13;1544428;90;25876;-79
2021/09/04 02:01:18;;;;;;;16.12;10.18;;;;;;;11.90;79.21;100881.47;1545701;90;25416;-78
2021/09/04 02:03:45;;;;;;;17.67;9.78;;;;;;;11.86;79.01;100885.55;1585129;88;28164;-79
2021/09/04 02:06:12;;;;;;;17.87;10.55;;;;;;;11.82;78.92;100889.64;1561170;89;26630;-79
2021/09/04 02:08:39;;;;;;;17.02;9.73;;;;;;;11.78;79.04;100892.38;1598730;86;25925;-79
2021/09/04 02:11:06;;;;;;;32.00;17.17;;;;;;;11.77;79.29;100894.73;1600228;86;26502;-79
2021/09/04 02:13:33;;;;;;;20.92;12.30;;;;;;;11.74;79.17;100889.72;1628693;86;25382;-79
2021/09/04 02:16:01;;;;;;;20.43;11.33;;;;;;;11.72;79.05;100892.30;1599146;86;45780;-79
2021/09/04 02:18:33;;;;;;;16.73;10.88;;;;;;;11.68;78.97;100890.97;1577512;88;25829;-79
2021/09/04 02:20:58;;;;;;;17.62;9.25;;;;;;;11.66;78.98;100893.82;1585146;90;25789;-79
2021/09/04 02:23:26;;;;;;;17.77;8.30;;;;;;;11.59;79.73;100899.09;1601109;88;25815;-79
2021/09/04 02:25:53;;;;;;;13.00;8.05;;;;;;;11.56;79.87;100901.33;1578878;86;25349;-79
2021/09/04 02:28:20;;;;;;;12.70;7.85;;;;;;;11.54;79.90;100908.73;1621952;86;27528;-81
2021/09/04 02:30:47;;;;;;;13.48;7.50;;;;;;;11.53;80.26;100913.76;1641795;86;25308;-81
2021/09/04 02:33:15;;;;;;;13.32;8.08;;;;;;;11.54;80.30;100910.91;1623851;86;25941;-81
2021/09/04 02:35:43;;;;;;;12.18;7.67;;;;;;;11.51;79.71;100911.27;1568935;89;25899;-81
2021/09/04 02:38:10;;;;;;;11.45;7.40;;;;;;;11.45;79.50;100914.70;1600250;87;26363;-80
2021/09/04 02:40:37;;;;;;;9.83;6.87;;;;;;;11.41;79.35;100913.41;1624197;86;28254;-81
2021/09/04 02:43:05;;;;;;;11.22;7.15;;;;;;;11.38;79.23;100919.13;1621262;86;26067;-80
2021/09/04 02:45:34;;;;;;;10.82;7.25;;;;;;;11.34;79.23;100914.31;1578264;88;26053;-82
2021/09/04 02:48:02;;;;;;;15.83;8.18;;;;;;;11.35;79.58;100913.31;1615551;87;25792;-81
2021/09/04 02:50:30;;;;;;;12.58;6.85;;;;;;;11.33;79.54;100920.17;1636974;86;25960;-80
2021/09/04 02:52:57;;;;;;;11.57;7.53;;;;;;;11.29;79.41;100921.56;1599752;86;27364;-81
2021/09/04 02:55:26;;;;;;;15.45;9.40;;;;;;;11.24;79.35;100919.96;1577987;86;26071;-81
2021/09/04 02:57:53;;;;;;;15.68;8.85;;;;;;;11.22;79.93;100917.97;1609579;86;25568;-81
2021/09/04 03:00:20;;;;;;;14.20;8.43;;;;;;;11.20;79.72;100923.19;1626039;86;25786;-81
2021/09/04 03:02:50;;;;;;;13.78;7.90;;;;;;;11.20;79.85;100928.05;1624656;86;25856;-81
2021/09/04 03:05:18;;;;;;;16.25;9.48;;;;;;;11.17;79.65;100923.53;1603723;86;28385;-78
2021/09/04 03:07:46;;;;;;;18.27;11.05;;;;;;;11.14;79.49;100925.27;1629656;86;26105;-79
2021/09/04 03:10:14;;;;;;;19.82;11.25;;;;;;;11.09;79.31;100920.44;1629411;86;25857;-78
2021/09/04 03:12:42;;;;;;;13.60;8.75;;;;;;;11.03;79.26;100917.16;1638964;87;26451;-79
2021/09/04 03:15:11;;;;;;;13.30;7.97;;;;;;;11.00;79.17;100916.66;1600596;87;25960;-79
2021/09/04 03:17:38;;;;;;;12.50;7.80;;;;;;;10.98;79.22;100917.36;1625914;86;28182;-78
2021/09/04 03:20:07;;;;;;;19.55;11.68;;;;;;;10.95;79.35;100919.88;1643570;86;25989;-78
2021/09/04 03:22:35;;;;;;;21.25;11.75;;;;;;;10.92;79.09;100921.61;1638605;87;25905;-79
2021/09/04 03:25:03;;;;;;;18.30;10.48;;;;;;;10.89;79.36;100924.63;1600547;85;25879;-79
2021/09/04 03:27:31;;;;;;;15.68;9.30;;;;;;;10.88;79.39;100924.83;1602386;88;25908;-78
2021/09/04 03:30:00;;;;;;;16.23;8.98;;;;;;;10.85;79.48;100924.67;1573980;89;28264;-78
2021/09/04 03:32:27;;;;;;;15.25;8.83;;;;;;;10.82;79.50;100923.18;1600971;86;25893;-79
2021/09/04 03:34:57;;;;;;;12.50;8.00;;;;;;;10.80;79.37;100923.03;1567010;90;25931;-79
2021/09/04 03:37:25;;;;;;;15.93;8.45;;;;;;;10.74;79.07;100925.94;1597556;88;26320;-78
2021/09/04 03:39:52;;;;;;;17.02;10.32;;;;;;;10.71;79.01;100934.32;1593453;89;26585;-79
2021/09/04 03:42:20;;;;;;;15.38;8.90;;;;;;;10.66;78.86;100934.05;1600746;86;28174;-79
2021/09/04 03:44:47;;;;;;;11.60;7.15;;;;;;;10.61;78.74;100937.75;1576882;86;25852;-78
2021/09/04 03:47:14;;;;;;;10.82;6.58;;;;;;;10.56;78.66;100942.80;1629586;86;26656;-79
2021/09/04 03:49:41;;;;;;;11.38;6.03;;;;;;;10.51;78.62;100944.36;1647918;86;25863;-78
2021/09/04 03:52:10;;;;;;;9.85;4.60;;;;;;;10.49;78.63;100945.05;1625588;86;26750;-78
2021/09/04 03:54:37;;;;;;;7.55;4.53;;;;;;;10.46;78.72;100943.55;1615965;87;27481;-78
2021/09/04 03:57:05;;;;;;;7.78;4.50;;;;;;;10.44;78.59;100941.56;1626618;86;25954;-79
2021/09/04 03:59:33;;;;;;;6.58;4.30;;;;;;;10.40;78.66;100944.27;1631315;86;25647;-79
2021/09/04 04:02:01;;;;;;;11.53;5.50;;;;;;;10.37;78.86;100948.63;1628217;86;25694;-79
2021/09/04 04:04:28;;;;;;;12.30;7.12;;;;;;;10.37;78.78;100953.98;1605537;86;26222;-79
2021/09/04 04:06:56;;;;;;;23.85;10.53;;;;;;;10.35;78.83;100960.02;1623886;87;28194;-79
2021/09/04 04:09:23;;;;;;;69.90;29.07;;;;;;;10.30;78.85;100958.39;1629243;86;25856;-79
2021/09/04 04:11:51;;;;;;;46.80;20.65;;;;;;;10.29;78.93;100964.74;1602904;87;25871;-79
2021/09/04 04:14:18;;;;;;;36.98;17.70;;;;;;;10.29;78.90;100966.58;1526824;90;25890;-79
2021/09/04 04:16:47;;;;;;;21.37;9.68;;;;;;;10.27;78.89;100964.09;1582090;88;25822;-78
2021/09/04 04:19:14;;;;;;;13.70;7.33;;;;;;;10.27;79.00;100969.94;1616946;88;27569;-79
2021/09/04 04:21:42;;;;;;;9.93;5.58;;;;;;;10.26;79.19;100968.29;1600756;86;25848;-79
2021/09/04 04:24:09;;;;;;;8.55;5.55;;;;;;;10.23;79.22;100968.13;1568209;89;25939;-78
2021/09/04 04:26:38;;;;;;;10.43;6.05;;;;;;;10.20;79.25;100972.48;1599922;88;26856;-78
2021/09/04 04:29:06;;;;;;;10.78;5.83;;;;;;;10.17;79.31;100977.36;1592437;88;26556;-79
2021/09/04 04:31:35;;;;;;;17.60;7.12;;;;;;;10.13;79.39;100983.58;1562686;90;27447;-78
2021/09/04 04:34:03;;;;;;;16.95;7.40;;;;;;;10.11;79.61;100988.77;1566076;89;25838;-78
2021/09/04 04:36:31;;;;;;;21.30;6.80;;;;;;;10.10;79.80;100985.22;1568047;89;25795;-78
2021/09/04 04:38:58;;;;;;;12.70;6.35;;;;;;;10.07;79.96;100997.11;1575194;89;26296;-78
2021/09/04 04:41:26;;;;;;;33.48;5.60;;;;;;;10.03;80.03;100998.96;1615002;88;25871;-78
2021/09/04 04:43:53;;;;;;;10.48;5.15;;;;;;;9.95;80.14;100994.98;1601426;86;27546;-78
2021/09/04 04:46:20;;;;;;;44.50;5.33;;;;;;;9.92;80.52;101002.84;1621360;86;26249;-78
2021/09/04 04:48:47;;;;;;;7.20;4.15;;;;;;;9.92;80.52;101001.51;1639225;86;26555;-78
2021/09/04 04:51:15;;;;;;;5.87;4.12;;;;;;;9.91;80.72;101010.56;1620685;86;26474;-78
2021/09/04 04:53:42;;;;;;;8.10;4.37;;;;;;;9.90;80.67;101010.75;1578840;86;26526;-78
2021/09/04 04:56:10;;;;;;;6.50;4.30;;;;;;;9.88;80.71;101014.91;1625391;86;28288;-78
2021/09/04 04:58:38;;;;;;;10.48;4.42;;;;;;;9.89;80.77;101014.41;1630168;86;25852;-79
2021/09/04 05:01:05;;;;;;;6.10;4.42;;;;;;;9.89;80.78;101013.91;1647482;86;26711;-78
2021/09/04 05:03:32;;;;;;;6.80;4.12;;;;;;;9.91;80.89;101011.90;1628247;86;26541;-79
2021/09/04 05:06:00;;;;;;;7.83;5.37;;;;;;;9.97;81.28;101010.36;1625695;86;25391;-79
2021/09/04 05:08:27;;;;;;;6.90;4.60;;;;;;;10.00;81.61;101007.36;1651204;86;28222;-78
2021/09/04 05:10:56;;;;;;;8.65;4.95;;;;;;;10.02;81.72;101019.56;1630228;86;25985;-79
2021/09/04 05:13:25;;;;;;;9.68;5.22;;;;;;;10.06;81.97;101017.36;1608474;86;26067;-79
2021/09/04 05:15:52;;;;;;;9.88;6.08;;;;;;;10.13;82.50;101012.19;1630662;86;25792;-79
2021/09/04 05:18:19;;;;;;;11.40;6.20;;;;;;;10.20;83.22;101015.31;1646184;86;25750;-78
2021/09/04 05:20:47;;;;;;;9.53;5.40;;;;;;;10.26;83.85;101014.64;1619643;87;28010;-78
2021/09/04 05:23:14;;;;;;;7.97;4.70;;;;;;;10.31;83.93;101016.80;1579701;86;25952;-79
2021/09/04 05:25:42;;;;;;;11.38;7.00;;;;;;;10.35;84.31;101018.12;1624644;86;25946;-79
2021/09/04 05:28:09;;;;;;;11.33;6.42;;;;;;;10.40;84.59;101015.23;1628097;86;26394;-79
2021/09/04 05:30:36;;;;;;;15.00;7.33;;;;;;;10.43;84.76;101018.06;1608812;86;26555;-78
2021/09/04 05:33:03;;;;;;;10.13;6.15;;;;;;;10.48;84.87;101018.35;1598339;87;27506;-79
2021/09/04 05:35:30;;;;;;;9.78;5.85;;;;;;;10.49;84.95;101017.36;1586944;86;25720;-78
2021/09/04 05:37:57;;;;;;;10.95;6.15;;;;;;;10.53;85.08;101022.69;1622808;87;25992;-79
2021/09/04 05:40:24;;;;;;;9.93;5.58;;;;;;;10.57;85.35;101023.50;1626585;86;26495;-79
2021/09/04 05:42:51;;;;;;;10.48;5.65;;;;;;;10.64;85.40;101015.59;1587612;86;25990;-79
2021/09/04 05:45:18;;;;;;;12.43;6.05;;;;;;;10.71;85.66;101022.73;1626307;86;28287;-78
2021/09/04 05:47:45;;;;;;;9.60;5.95;;;;;;;10.78;85.76;101017.00;1648926;86;25946;-78
2021/09/04 05:50:12;;;;;;;8.45;5.45;;;;;;;10.84;85.84;101022.98;1624151;86;25857;-79
2021/09/04 05:52:39;;;;;;;6.92;4.80;;;;;;;10.93;86.04;101029.66;1605397;86;26549;-78
2021/09/04 05:55:07;;;;;;;7.90;5.05;;;;;;;11.00;86.25;101033.27;1625499;86;25880;-79
2021/09/04 05:57:34;;;;;;;7.08;4.90;;;;;;;11.04;86.04;101034.57;1650881;86;27588;-78
2021/09/04 06:00:01;;;;;;;10.55;5.25;;;;;;;11.11;85.93;101039.55;1604696;86;25842;-79
2021/09/04 06:02:30;;;;;;;11.00;5.42;;;;;;;11.18;86.15;101036.49;1605366;86;25980;-78
2021/09/04 06:04:57;;;;;;;11.35;4.50;;;;;;;11.28;86.37;101035.73;1630645;86;26190;-78
2021/09/04 06:07:24;;;;;;;7.50;4.22;;;;;;;11.35;85.76;101040.20;1631682;86;25394;-79
2021/09/04 06:09:51;;;;;;;9.75;4.70;;;;;;;11.41;85.78;101044.00;1603791;86;28126;-79
2021/09/04 06:12:18;;;;;;;9.58;4.25;;;;;;;11.46;85.64;101041.61;1600643;86;25868;-78
2021/09/04 06:14:45;;;;;;;6.60;4.70;;;;;;;11.51;85.85;101042.72;1625413;86;26549;-79
2021/09/04 06:17:12;;;;;;;7.47;3.77;;;;;;;11.60;85.90;101052.88;1628449;87;26405;-79
2021/09/04 06:19:40;;;;;;;5.97;3.35;;;;;;;11.66;85.16;101045.43;1605832;86;25891;-78
2021/09/04 06:22:07;;;;;;;7.40;3.47;;;;;;;11.73;84.90;101041.04;1602495;87;27223;-78
2021/09/04 06:24:34;;;;;;;7.10;3.87;;;;;;;11.81;84.39;101043.63;1626583;87;25870;-78
2021/09/04 06:27:01;;;;;;;9.85;3.45;;;;;;;11.88;84.22;101041.89;1645612;86;25880;-79
2021/09/04 06:29:28;;;;;;;4.60;3.12;;;;;;;11.97;83.97;101043.47;1607519;86;25832;-78
2021/09/04 06:31:55;;;;;;;8.55;3.52;;;;;;;12.03;83.54;101037.86;1606799;86;26210;-79
2021/09/04 06:34:22;;;;;;;8.23;4.20;;;;;;;12.09;83.49;101041.14;1621748;87;27595;-79
2021/09/04 06:36:49;;;;;;;9.23;3.55;;;;;;;12.14;83.23;101054.85;1628511;86;26475;-79
2021/09/04 06:39:19;;;;;;;6.00;3.12;;;;;;;12.25;83.24;101051.70;1567182;89;25925;-79
2021/09/04 06:41:46;;;;;;;6.35;3.15;;;;;;;12.33;83.06;101052.44;1577973;88;26502;-78
2021/09/04 06:44:13;;;;;;;7.53;3.25;;;;;;;12.44;82.73;101063.22;1636058;86;25923;-79
2021/09/04 06:46:40;;;;;;;6.30;2.25;;;;;;;12.56;82.72;101066.23;1597663;86;27591;-78
2021/09/04 06:49:08;;;;;;;4.95;2.72;;;;;;;12.65;82.05;101060.58;1596174;86;26034;-79
2021/09/04 06:51:35;;;;;;;3.62;2.37;;;;;;;12.72;82.07;101064.69;1606267;86;26626;-79
2021/09/04 06:54:02;;;;;;;5.70;2.62;;;;;;;12.83;81.98;101073.61;1649765;86;26645;-78
2021/09/04 06:56:29;;;;;;;5.30;2.00;;;;;;;12.91;81.32;101072.98;1646106;86;26741;-79
2021/09/04 06:58:56;;;;;;;4.15;2.80;;;;;;;13.00;80.09;101079.07;1576622;87;27494;-79
2021/09/04 07:01:23;;;;;;;5.00;2.40;;;;;;;13.02;79.79;101081.87;1605115;86;25808;-79
2021/09/04 07:03:50;;;;;;;5.37;2.20;;;;;;;13.10;79.95;101084.49;1627994;86;26571;-79
2021/09/04 07:06:17;;;;;;;3.95;2.08;;;;;;;13.19;78.97;101087.05;1643173;86;25807;-79
2021/09/04 07:08:44;;;;;;;7.05;2.42;;;;;;;13.27;78.22;101083.72;1605996;86;25856;-79
2021/09/04 07:11:11;;;;;;;3.60;2.58;;;;;;;13.36;77.95;101082.57;1601502;87;27520;-79
2021/09/04 07:13:38;;;;;;;3.10;1.47;;;;;;;13.47;76.51;101081.22;1649285;86;25891;-79
2021/09/04 07:16:06;;;;;;;3.40;1.95;;;;;;;13.50;75.74;101084.84;1650199;86;25843;-78
2021/09/04 07:18:33;;;;;;;2.90;1.57;;;;;;;13.57;75.39;101088.44;1608418;86;26176;-79
2021/09/04 07:21:00;;;;;;;2.17;1.50;;;;;;;13.65;74.97;101088.30;1603949;86;25354;-78
2021/09/04 07:23:27;;;;;;;4.62;1.98;;;;;;;13.71;75.10;101087.51;1646014;86;27541;-80
2021/09/04 07:25:54;;;;;;;3.77;1.50;;;;;;;13.76;74.77;101093.15;1648457;86;26613;-80
2021/09/04 07:28:21;;;;;;;3.70;1.35;;;;;;;13.76;74.33;101095.34;1586427;87;25908;-80
2021/09/04 07:30:48;;;;;;;3.90;1.47;;;;;;;13.78;73.62;101089.75;1606874;86;26237;-79
2021/09/04 07:33:15;;;;;;;5.20;1.50;;;;;;;13.81;74.14;101081.29;1631792;86;26045;-79
2021/09/04 07:35:42;;;;;;;2.05;1.45;;;;;;;13.89;72.29;101079.78;1615396;86;27483;-79
2021/09/04 07:38:09;;;;;;;1.57;1.37;;;;;;;13.98;73.05;101088.05;1567158;89;25644;-79
2021/09/04 07:40:36;;;;;;;2.08;1.12;;;;;;;14.06;71.99;101084.34;1596677;87;25934;-79
2021/09/04 07:43:07;;;;;;;3.73;1.20;;;;;;;14.13;71.29;101085.23;1640238;86;26427;-79
2021/09/04 07:45:32;;;;;;;4.05;1.12;;;;;;;14.20;71.79;101086.92;1639254;86;26367;-79
2021/09/04 07:47:59;;;;;;;3.55;1.30;;;;;;;14.30;70.74;101090.66;1595548;87;27520;-79
2021/09/04 07:50:27;;;;;;;1.87;1.10;;;;;;;14.31;68.50;101093.64;1600012;86;26650;-79
2021/09/04 07:52:54;;;;;;;2.02;1.12;;;;;;;14.32;68.69;101101.55;1620762;86;25875;-79
2021/09/04 07:55:20;;;;;;;3.30;1.15;;;;;;;14.30;68.74;101102.27;1623063;86;26888;-80
2021/09/04 07:57:47;;;;;;;2.25;1.12;;;;;;;14.32;69.45;101110.14;1598060;86;25910;-78
2021/09/04 08:00:15;;;;;;;1.80;1.00;;;;;;;14.34;68.01;101108.92;1600995;86;27458;-78
2021/09/04 08:02:43;;;;;;;2.85;0.95;;;;;;;14.35;68.34;101115.96;1638608;86;25945;-79
2021/09/04 08:05:11;;;;;;;1.50;1.07;;;;;;;14.35;68.07;101110.57;1637128;86;26009;-79
2021/09/04 08:07:38;;;;;;;5.20;1.52;;;;;;;14.35;67.74;101117.31;1580319;86;26355;-79
2021/09/04 08:10:06;;;;;;;3.58;1.20;;;;;;;14.39;67.48;101114.53;1597025;86;25561;-79
2021/09/04 08:12:33;;;;;;;2.40;0.98;;;;;;;14.44;67.30;101117.47;1632829;86;27535;-79
2021/09/04 08:15:00;;;;;;;5.70;1.00;;;;;;;14.51;66.43;101118.86;1619149;86;26379;-78
2021/09/04 08:17:27;;;;;;;3.50;1.27;;;;;;;14.58;66.74;101115.69;1575088;88;25926;-79
2021/09/04 08:19:54;;;;;;;1.87;1.00;;;;;;;14.70;67.13;101108.67;1593547;88;25756;-79
2021/09/04 08:22:21;;;;;;;2.90;0.90;;;;;;;14.78;65.75;101113.89;1638382;86;25914;-79
2021/09/04 08:24:48;;;;;;;2.45;0.90;;;;;;;14.82;65.81;101102.20;1635618;86;27578;-80
2021/09/04 08:27:15;;;;;;;2.60;1.10;;;;;;;14.86;66.30;101104.80;1571198;88;25853;-80
2021/09/04 08:29:43;;;;;;;2.65;0.78;;;;;;;14.91;65.66;101109.89;1592074;88;25908;-80
2021/09/04 08:32:10;;;;;;;6.15;1.10;;;;;;;14.94;64.23;101114.06;1588217;88;25819;-79
2021/09/04 08:34:37;;;;;;;2.37;0.85;;;;;;;14.90;64.08;101108.25;1637282;86;25835;-79
2021/09/04 08:37:04;;;;;;;1.20;0.62;;;;;;;14.89;62.49;101120.05;1597126;86;27563;-79
2021/09/04 08:39:31;;;;;;;2.58;1.30;;;;;;;14.91;63.27;101118.50;1618448;86;25803;-80
2021/09/04 08:41:59;;;;;;;1.05;0.68;;;;;;;14.95;64.22;101113.84;1641289;86;25763;-79
2021/09/04 08:44:25;;;;;;;1.20;0.90;;;;;;;15.09;63.50;101113.38;1620124;86;25928;-79
2021/09/04 08:46:53;;;;;;;1.77;0.88;;;;;;;15.17;63.68;101113.19;1595007;86;25885;-79
2021/09/04 08:49:20;;;;;;;1.82;0.53;;;;;;;15.26;63.38;101113.31;1601223;86;27395;-80
2021/09/04 08:51:47;;;;;;;2.25;0.75;;;;;;;15.35;62.53;101114.80;1646535;86;26546;-80
2021/09/04 08:54:15;;;;;;;2.58;1.50;;;;;;;15.40;62.64;101115.83;1646313;86;25819;-80
2021/09/04 08:56:42;;;;;;;0.90;0.70;;;;;;;15.41;61.98;101114.81;1600995;86;26513;-80
2021/09/04 08:59:09;;;;;;;2.77;0.88;;;;;;;15.39;60.37;101114.19;1606751;86;26015;-81
2021/09/04 09:01:44;;;;;;;2.15;0.80;;;;;;;15.37;60.59;101118.12;1622993;86;27618;-78
2021/09/04 09:04:15;;;;;;;1.40;0.82;;;;;;;15.41;60.58;101114.81;1643706;86;25802;-80
2021/09/04 09:06:44;;;;;;;1.42;0.70;;;;;;;15.54;61.13;101107.78;1622237;87;25796;-80
2021/09/04 09:09:25;;;;;;;6.35;1.00;;;;;;;15.62;59.06;101110.27;1613239;87;26361;-80
2021/09/04 09:11:55;;;;;;;4.87;1.05;;;;;;;15.61;58.81;101109.98;1640829;86;25830;-80
2021/09/04 09:14:25;;;;;;;2.23;1.33;;;;;;;15.61;58.00;101114.02;1638019;86;28340;-79
2021/09/04 09:16:58;;;;;;;5.97;1.10;;;;;;;15.64;59.23;101106.33;1602859;86;25431;-80
2021/09/04 09:19:38;;;;;;;6.33;1.00;;;;;;;15.77;60.48;101110.90;1646276;86;25817;-81
2021/09/04 09:22:17;;;;;;;1.52;1.02;;;;;;;15.82;58.36;101119.22;1640447;87;26294;-80
2021/09/04 09:24:44;;;;;;;2.02;1.37;;;;;;;15.85;58.58;101122.33;1626719;86;25913;-79
2021/09/04 09:27:15;;;;;;;1.12;0.80;;;;;;;15.93;59.35;101115.89;1622392;87;28327;-79
2021/09/04 09:29:49;;;;;;;5.15;1.00;;;;;;;16.03;59.86;101113.59;1628890;86;26072;-80
2021/09/04 09:32:16;;;;;;;2.08;1.12;;;;;;;16.05;57.96;101123.16;1592984;88;25886;-79
2021/09/04 09:34:46;;;;;;;1.62;0.80;;;;;;;16.00;56.56;101114.84;1600384;86;26765;-79
2021/09/04 09:37:14;;;;;;;2.80;1.00;;;;;;;16.01;58.29;101117.86;1606967;86;25895;-79
2021/09/04 09:39:45;;;;;;;3.00;0.98;;;;;;;16.01;57.00;101123.27;1646519;86;27538;-79
2021/09/04 09:42:14;;;;;;;2.70;1.10;;;;;;;15.97;56.84;101112.54;1625548;86;26045;-79
2021/09/04 09:44:42;;;;;;;2.15;1.00;;;;;;;15.99;56.54;101107.79;1586105;86;25949;-81
2021/09/04 09:47:12;;;;;;;2.52;0.90;;;;;;;16.06;56.72;101112.64;1606914;86;25896;-80
2021/09/04 09:49:44;;;;;;;2.17;0.87;;;;;;;16.13;57.06;101115.34;1642767;86;25807;-80
2021/09/04 09:52:17;;;;;;;1.85;0.90;;;;;;;16.11;56.79;101106.09;1623990;86;27262;-80
2021/09/04 09:54:45;;;;;;;2.60;0.90;;;;;;;16.21;57.82;101115.95;1623977;87;25982;-80
2021/09/04 09:57:14;;;;;;;2.87;0.95;;;;;;;16.28;57.15;101115.94;1593510;88;26733;-80
2021/09/04 09:59:45;;;;;;;2.35;1.00;;;;;;;16.37;57.34;101116.02;1590856;89;25857;-80
2021/09/04 10:02:15;;;;;;;1.98;1.12;;;;;;;16.43;58.03;101115.17;1598934;86;26340;-81
2021/09/04 10:04:46;;;;;;;2.87;1.20;;;;;;;16.48;57.18;101118.08;1605270;87;27493;-80
2021/09/04 10:07:13;;;;;;;1.77;1.02;;;;;;;16.55;57.27;101116.74;1599579;87;26292;-80
2021/09/04 10:09:41;;;;;;;2.12;1.00;;;;;;;16.63;57.05;101114.63;1648351;86;26706;-80
2021/09/04 10:12:09;;;;;;;4.25;1.50;;;;;;;16.70;56.65;101114.06;1630899;86;25920;-80
2021/09/04 10:14:38;;;;;;;2.52;1.07;;;;;;;16.77;56.85;101118.94;1604074;86;25839;-80
2021/09/04 10:17:06;;;;;;;1.30;0.93;;;;;;;16.82;55.46;101112.37;1631041;86;27503;-80
2021/09/04 10:19:35;;;;;;;2.67;0.95;;;;;;;16.72;55.00;101114.68;1645987;86;25858;-81
2021/09/04 10:22:06;;;;;;;1.70;1.00;;;;;;;16.80;56.49;101119.03;1625411;86;25814;-80
2021/09/04 10:24:53;;;;;;;3.08;1.30;;;;;;;16.89;55.72;101111.80;1609984;86;25934;-80
2021/09/04 10:27:36;;;;;;;4.80;1.17;;;;;;;16.95;55.86;101115.02;1617293;86;25880;-80
2021/09/04 10:30:30;;;;;;;2.58;1.10;;;;;;;16.99;56.22;101127.58;1648694;85;28233;-80
2021/09/04 10:33:17;;;;;;;2.60;1.10;;;;;;;17.03;55.97;101128.81;1649483;86;25899;-80
2021/09/04 10:35:56;;;;;;;2.62;0.90;;;;;;;17.03;56.00;101126.62;1623137;86;25982;-80
2021/09/04 10:38:26;;;;;;;1.75;0.90;;;;;;;17.09;56.07;101129.30;1570132;89;25940;-81
2021/09/04 10:41:18;;;;;;;3.67;1.35;;;;;;;17.11;53.94;101127.75;1578928;88;25992;-79
2021/09/04 10:43:48;;;;;;;5.92;1.25;;;;;;;17.11;55.01;101131.26;1613543;87;27413;-80
2021/09/04 10:46:17;;;;;;;2.43;1.00;;;;;;;17.17;53.98;101126.88;1620591;87;25823;-80
2021/09/04 10:48:59;;;;;;;2.08;0.90;;;;;;;17.15;54.41;101116.23;1597263;87;25850;-80
2021/09/04 10:51:51;;;;;;;1.75;1.00;;;;;;;17.28;55.37;101122.13;1634940;86;25814;-80
2021/09/04 10:54:42;;;;;;;2.27;1.10;;;;;;;17.42;54.92;101123.17;1622915;86;25810;-80
2021/09/04 10:57:14;;;;;;;3.60;1.10;;;;;;;17.43;53.14;101118.56;1623974;87;27199;-80
2021/09/04 11:00:04;;;;;;;2.98;1.20;;;;;;;17.31;52.89;101113.03;1625960;87;25667;-80
2021/09/04 11:02:44;;;;;;;1.57;1.03;;;;;;;17.24;53.56;101116.30;1645072;86;25879;-80
2021/09/04 11:05:37;;;;;;;4.58;1.40;;;;;;;17.20;53.62;101120.49;1619219;87;25516;-80
2021/09/04 11:08:21;;;;;;;1.57;0.80;;;;;;;17.14;52.97;101118.66;1621079;87;25894;-80
2021/09/04 11:11:08;;;;;;;2.08;0.90;;;;;;;17.08;52.65;101121.40;1610118;86;27752;-80
2021/09/04 11:13:42;;;;;;;2.30;1.20;;;;;;;17.08;53.35;101118.17;1647918;86;25826;-79
2021/09/04 11:16:34;;;;;;;2.05;0.95;;;;;;;17.15;54.02;101121.66;1628690;86;25833;-81
2021/09/04 11:19:14;;;;;;;2.25;0.90;;;;;;;17.27;53.33;101117.75;1631085;87;25945;-81
2021/09/04 11:21:49;;;;;;;3.58;0.90;;;;;;;17.33;49.06;101118.22;1627293;87;26720;-81
2021/09/04 11:24:36;;;;;;;1.98;0.85;;;;;;;17.21;49.32;101119.98;1648596;86;27499;-80
2021/09/04 11:27:10;;;;;;;1.82;1.22;;;;;;;17.13;49.93;101123.75;1646889;86;25910;-80
2021/09/04 11:29:43;;;;;;;1.85;0.85;;;;;;;17.22;51.15;101109.44;1626443;86;25355;-81